sensor_id;sensor_type;location;lat;lon;timestamp;temperature;humidity
30304;DHT22;17112;48.636;10.152;2022-08-11T00:01:52;18.70;46.50
30304;DHT22;17112;48.636;10.152;2022-08-11T00:04:24;18.60;46.40
30304;DHT22;17112;48.636;10.152;2022-08-11T00:06:51;18.60;46.20
30304;DHT22;17112;48.636;10.152;2022-08-11T00:09:20;18.60;46.20
30304;DHT22;17112;48.636;10.152;2022-08-11T00:11:53;18.50;46.40
30304;DHT22;17112;48.636;10.152;2022-08-11T00:14:20;18.50;47.20
30304;DHT22;17112;48.636;10.152;2022-08-11T00:17:08;18.40;46.40
30304;DHT22;17112;48.636;10.152;2022-08-11T00:19:40;18.40;47.50
30304;DHT22;17112;48.636;10.152;2022-08-11T00:22:08;18.40;47.10
30304;DHT22;17112;48.636;10.152;2022-08-11T00:24:39;18.30;46.80
30304;DHT22;17112;48.636;10.152;2022-08-11T00:27:06;18.20;47.20
30304;DHT22;17112;48.636;10.152;2022-08-11T00:29:33;18.20;47.00
30304;DHT22;17112;48.636;10.152;2022-08-11T00:32:01;18.20;47.10
30304;DHT22;17112;48.636;10.152;2022-08-11T00:34:31;18.20;47.30
30304;DHT22;17112;48.636;10.152;2022-08-11T00:37:08;18.10;47.60
30304;DHT22;17112;48.636;10.152;2022-08-11T00:39:41;18.10;47.40
30304;DHT22;17112;48.636;10.152;2022-08-11T00:45:08;18.00;48.40
30304;DHT22;17112;48.636;10.152;2022-08-11T00:56:22;17.90;48.50
30304;DHT22;17112;48.636;10.152;2022-08-11T01:09:58;17.70;48.70
30304;DHT22;17112;48.636;10.152;2022-08-11T01:12:58;17.70;47.80
30304;DHT22;17112;48.636;10.152;2022-08-11T01:15:36;17.60;48.80
30304;DHT22;17112;48.636;10.152;2022-08-11T01:21:52;17.60;49.40
30304;DHT22;17112;48.636;10.152;2022-08-11T01:24:50;17.60;49.40
30304;DHT22;17112;48.636;10.152;2022-08-11T01:41:53;17.40;50.10
30304;DHT22;17112;48.636;10.152;2022-08-11T01:51:34;17.30;50.30
30304;DHT22;17112;48.636;10.152;2022-08-11T01:54:10;17.30;50.50
30304;DHT22;17112;48.636;10.152;2022-08-11T01:59:49;17.20;50.40
30304;DHT22;17112;48.636;10.152;2022-08-11T02:02:26;17.20;49.80
30304;DHT22;17112;48.636;10.152;2022-08-11T02:10:39;17.00;49.70
30304;DHT22;17112;48.636;10.152;2022-08-11T02:19:25;16.90;51.20
30304;DHT22;17112;48.636;10.152;2022-08-11T02:28:00;16.90;50.90
30304;DHT22;17112;48.636;10.152;2022-08-11T02:30:32;16.80;50.90
30304;DHT22;17112;48.636;10.152;2022-08-11T02:33:13;16.80;51.00
30304;DHT22;17112;48.636;10.152;2022-08-11T02:35:58;16.80;50.70
30304;DHT22;17112;48.636;10.152;2022-08-11T02:39:11;16.80;51.50
30304;DHT22;17112;48.636;10.152;2022-08-11T02:52:35;16.70;51.10
30304;DHT22;17112;48.636;10.152;2022-08-11T02:57:53;16.60;51.60
30304;DHT22;17112;48.636;10.152;2022-08-11T03:00:22;16.60;51.70
30304;DHT22;17112;48.636;10.152;2022-08-11T03:14:24;16.50;52.60
30304;DHT22;17112;48.636;10.152;2022-08-11T03:20:02;16.50;52.50
30304;DHT22;17112;48.636;10.152;2022-08-11T03:28:31;16.40;52.50
30304;DHT22;17112;48.636;10.152;2022-08-11T03:31:25;16.30;52.70
30304;DHT22;17112;48.636;10.152;2022-08-11T03:34:11;16.30;53.00
30304;DHT22;17112;48.636;10.152;2022-08-11T03:51:54;16.10;53.80
30304;DHT22;17112;48.636;10.152;2022-08-11T03:54:21;16.10;53.70
30304;DHT22;17112;48.636;10.152;2022-08-11T03:57:12;16.10;52.60
30304;DHT22;17112;48.636;10.152;2022-08-11T04:00:12;16.00;53.00
30304;DHT22;17112;48.636;10.152;2022-08-11T04:17:31;16.10;53.90
30304;DHT22;17112;48.636;10.152;2022-08-11T04:20:22;16.10;53.70
30304;DHT22;17112;48.636;10.152;2022-08-11T04:31:36;16.20;54.20
30304;DHT22;17112;48.636;10.152;2022-08-11T04:37:11;16.30;54.10
30304;DHT22;17112;48.636;10.152;2022-08-11T04:40:11;16.30;53.90
30304;DHT22;17112;48.636;10.152;2022-08-11T04:51:56;16.30;54.10
30304;DHT22;17112;48.636;10.152;2022-08-11T04:57:52;16.40;54.30
30304;DHT22;17112;48.636;10.152;2022-08-11T05:16:18;16.90;54.30
30304;DHT22;17112;48.636;10.152;2022-08-11T05:19:05;17.10;54.10
30304;DHT22;17112;48.636;10.152;2022-08-11T05:21:53;17.30;53.70
30304;DHT22;17112;48.636;10.152;2022-08-11T05:24:47;17.50;53.20
30304;DHT22;17112;48.636;10.152;2022-08-11T05:27:49;17.60;53.20
30304;DHT22;17112;48.636;10.152;2022-08-11T05:30:35;17.80;53.10
30304;DHT22;17112;48.636;10.152;2022-08-11T05:33:24;18.10;52.80
30304;DHT22;17112;48.636;10.152;2022-08-11T05:36:16;18.30;53.20
30304;DHT22;17112;48.636;10.152;2022-08-11T05:38:54;18.50;52.80
30304;DHT22;17112;48.636;10.152;2022-08-11T05:41:40;18.70;52.60
30304;DHT22;17112;48.636;10.152;2022-08-11T05:44:26;18.90;52.10
30304;DHT22;17112;48.636;10.152;2022-08-11T05:47:23;19.20;51.90
30304;DHT22;17112;48.636;10.152;2022-08-11T05:50:13;19.40;51.40
30304;DHT22;17112;48.636;10.152;2022-08-11T05:52:59;19.60;51.10
30304;DHT22;17112;48.636;10.152;2022-08-11T05:55:48;19.80;50.80
30304;DHT22;17112;48.636;10.152;2022-08-11T05:58:38;20.00;50.50
30304;DHT22;17112;48.636;10.152;2022-08-11T06:01:06;20.20;50.30
30304;DHT22;17112;48.636;10.152;2022-08-11T06:03:32;20.40;49.90
30304;DHT22;17112;48.636;10.152;2022-08-11T06:06:24;20.60;49.60
30304;DHT22;17112;48.636;10.152;2022-08-11T06:08:54;20.80;49.20
30304;DHT22;17112;48.636;10.152;2022-08-11T06:11:22;21.00;49.10
30304;DHT22;17112;48.636;10.152;2022-08-11T06:13:49;21.20;48.60
30304;DHT22;17112;48.636;10.152;2022-08-11T06:16:24;21.30;48.50
30304;DHT22;17112;48.636;10.152;2022-08-11T06:18:52;21.40;48.20
30304;DHT22;17112;48.636;10.152;2022-08-11T06:21:20;21.60;48.10
30304;DHT22;17112;48.636;10.152;2022-08-11T06:23:47;21.70;47.70
30304;DHT22;17112;48.636;10.152;2022-08-11T06:26:13;21.90;47.10
30304;DHT22;17112;48.636;10.152;2022-08-11T06:28:42;22.00;47.10
30304;DHT22;17112;48.636;10.152;2022-08-11T06:31:20;22.10;46.90
30304;DHT22;17112;48.636;10.152;2022-08-11T06:36:31;22.40;46.70
30304;DHT22;17112;48.636;10.152;2022-08-11T06:39:22;22.60;46.50
30304;DHT22;17112;48.636;10.152;2022-08-11T06:42:08;22.70;45.80
30304;DHT22;17112;48.636;10.152;2022-08-11T06:44:45;22.90;46.00
30304;DHT22;17112;48.636;10.152;2022-08-11T06:47:15;23.10;44.80
30304;DHT22;17112;48.636;10.152;2022-08-11T06:49:44;23.20;45.20
30304;DHT22;17112;48.636;10.152;2022-08-11T06:52:37;23.30;45.10
30304;DHT22;17112;48.636;10.152;2022-08-11T06:55:10;23.40;44.30
30304;DHT22;17112;48.636;10.152;2022-08-11T06:57:38;23.50;44.30
30304;DHT22;17112;48.636;10.152;2022-08-11T07:00:24;23.60;44.30
30304;DHT22;17112;48.636;10.152;2022-08-11T07:03:05;23.70;44.30
30304;DHT22;17112;48.636;10.152;2022-08-11T07:11:58;24.00;43.50
30304;DHT22;17112;48.636;10.152;2022-08-11T07:14:50;24.10;42.60
30304;DHT22;17112;48.636;10.152;2022-08-11T07:17:41;24.20;43.40
30304;DHT22;17112;48.636;10.152;2022-08-11T07:20:09;24.30;42.90
30304;DHT22;17112;48.636;10.152;2022-08-11T07:22:58;24.50;42.80
30304;DHT22;17112;48.636;10.152;2022-08-11T07:25:43;24.50;42.30
30304;DHT22;17112;48.636;10.152;2022-08-11T07:28:30;24.60;42.20
30304;DHT22;17112;48.636;10.152;2022-08-11T07:34:09;24.80;41.80
30304;DHT22;17112;48.636;10.152;2022-08-11T07:36:39;24.90;41.40
30304;DHT22;17112;48.636;10.152;2022-08-11T07:39:15;25.00;41.60
30304;DHT22;17112;48.636;10.152;2022-08-11T07:41:42;25.10;41.60
30304;DHT22;17112;48.636;10.152;2022-08-11T07:44:09;25.20;41.60
30304;DHT22;17112;48.636;10.152;2022-08-11T07:46:41;25.30;41.40
30304;DHT22;17112;48.636;10.152;2022-08-11T07:49:27;25.40;40.80
30304;DHT22;17112;48.636;10.152;2022-08-11T07:52:12;25.50;41.00
30304;DHT22;17112;48.636;10.152;2022-08-11T07:55:04;25.60;40.70
30304;DHT22;17112;48.636;10.152;2022-08-11T07:57:31;25.70;40.30
30304;DHT22;17112;48.636;10.152;2022-08-11T08:00:16;25.80;40.20
30304;DHT22;17112;48.636;10.152;2022-08-11T08:03:02;25.90;40.00
30304;DHT22;17112;48.636;10.152;2022-08-11T08:05:47;26.00;40.20
30304;DHT22;17112;48.636;10.152;2022-08-11T08:08:32;26.10;40.00
30304;DHT22;17112;48.636;10.152;2022-08-11T08:11:18;26.20;39.80
30304;DHT22;17112;48.636;10.152;2022-08-11T08:14:03;26.30;39.80
30304;DHT22;17112;48.636;10.152;2022-08-11T08:16:48;26.40;38.50
30304;DHT22;17112;48.636;10.152;2022-08-11T08:19:33;26.50;38.30
30304;DHT22;17112;48.636;10.152;2022-08-11T08:21:59;26.60;38.90
30304;DHT22;17112;48.636;10.152;2022-08-11T08:24:27;26.60;38.80
30304;DHT22;17112;48.636;10.152;2022-08-11T08:26:54;26.70;39.60
30304;DHT22;17112;48.636;10.152;2022-08-11T08:29:43;26.80;38.10
30304;DHT22;17112;48.636;10.152;2022-08-11T08:32:29;26.90;37.70
30304;DHT22;17112;48.636;10.152;2022-08-11T08:34:56;27.00;37.80
30304;DHT22;17112;48.636;10.152;2022-08-11T08:37:23;27.10;36.80
30304;DHT22;17112;48.636;10.152;2022-08-11T08:39:51;27.20;36.90
30304;DHT22;17112;48.636;10.152;2022-08-11T08:42:24;27.30;36.20
30304;DHT22;17112;48.636;10.152;2022-08-11T08:44:58;27.40;36.10
30304;DHT22;17112;48.636;10.152;2022-08-11T08:47:28;27.50;36.50
30304;DHT22;17112;48.636;10.152;2022-08-11T08:49:59;27.60;36.00
30304;DHT22;17112;48.636;10.152;2022-08-11T08:52:30;27.60;35.50
30304;DHT22;17112;48.636;10.152;2022-08-11T08:55:01;27.70;35.30
30304;DHT22;17112;48.636;10.152;2022-08-11T08:57:34;27.80;35.00
30304;DHT22;17112;48.636;10.152;2022-08-11T09:00:03;27.90;34.30
30304;DHT22;17112;48.636;10.152;2022-08-11T09:02:29;28.00;34.00
30304;DHT22;17112;48.636;10.152;2022-08-11T09:04:55;28.00;34.30
30304;DHT22;17112;48.636;10.152;2022-08-11T09:07:22;28.10;33.90
30304;DHT22;17112;48.636;10.152;2022-08-11T09:09:52;28.10;33.10
30304;DHT22;17112;48.636;10.152;2022-08-11T09:12:20;28.20;33.40
30304;DHT22;17112;48.636;10.152;2022-08-11T09:14:50;28.20;32.60
30304;DHT22;17112;48.636;10.152;2022-08-11T09:17:29;28.30;31.80
30304;DHT22;17112;48.636;10.152;2022-08-11T09:19:59;28.30;31.80
30304;DHT22;17112;48.636;10.152;2022-08-11T09:22:26;28.40;32.60
30304;DHT22;17112;48.636;10.152;2022-08-11T09:25:11;28.50;32.10
30304;DHT22;17112;48.636;10.152;2022-08-11T09:27:56;28.50;32.30
30304;DHT22;17112;48.636;10.152;2022-08-11T09:30:24;28.60;32.60
30304;DHT22;17112;48.636;10.152;2022-08-11T09:32:53;28.60;32.40
30304;DHT22;17112;48.636;10.152;2022-08-11T09:35:24;28.70;31.90
30304;DHT22;17112;48.636;10.152;2022-08-11T09:37:52;28.80;31.90
30304;DHT22;17112;48.636;10.152;2022-08-11T09:40:37;28.90;32.10
30304;DHT22;17112;48.636;10.152;2022-08-11T09:43:06;28.90;31.30
30304;DHT22;17112;48.636;10.152;2022-08-11T09:45:54;29.00;31.00
30304;DHT22;17112;48.636;10.152;2022-08-11T09:48:24;29.00;30.90
30304;DHT22;17112;48.636;10.152;2022-08-11T09:50:54;29.10;30.80
30304;DHT22;17112;48.636;10.152;2022-08-11T09:53:22;29.10;30.20
30304;DHT22;17112;48.636;10.152;2022-08-11T09:55:49;29.10;30.90
30304;DHT22;17112;48.636;10.152;2022-08-11T09:58:16;29.10;30.10
30304;DHT22;17112;48.636;10.152;2022-08-11T10:00:44;29.20;30.40
30304;DHT22;17112;48.636;10.152;2022-08-11T10:03:21;29.20;30.20
30304;DHT22;17112;48.636;10.152;2022-08-11T10:06:08;29.20;28.90
30304;DHT22;17112;48.636;10.152;2022-08-11T10:08:53;29.30;29.40
30304;DHT22;17112;48.636;10.152;2022-08-11T10:11:22;29.40;30.50
30304;DHT22;17112;48.636;10.152;2022-08-11T10:13:51;29.40;29.00
30304;DHT22;17112;48.636;10.152;2022-08-11T10:16:39;29.40;28.50
30304;DHT22;17112;48.636;10.152;2022-08-11T10:19:07;29.50;29.70
30304;DHT22;17112;48.636;10.152;2022-08-11T10:21:43;29.50;28.90
30304;DHT22;17112;48.636;10.152;2022-08-11T10:24:30;29.60;29.20
30304;DHT22;17112;48.636;10.152;2022-08-11T10:27:15;29.70;29.80
30304;DHT22;17112;48.636;10.152;2022-08-11T10:29:41;29.80;29.60
30304;DHT22;17112;48.636;10.152;2022-08-11T10:32:29;29.80;28.70
30304;DHT22;17112;48.636;10.152;2022-08-11T10:35:15;30.00;29.10
30304;DHT22;17112;48.636;10.152;2022-08-11T10:37:43;30.00;29.10
30304;DHT22;17112;48.636;10.152;2022-08-11T10:40:13;30.10;29.40
30304;DHT22;17112;48.636;10.152;2022-08-11T10:42:40;30.20;29.40
30304;DHT22;17112;48.636;10.152;2022-08-11T10:45:25;30.20;28.70
30304;DHT22;17112;48.636;10.152;2022-08-11T10:48:10;30.30;28.60
30304;DHT22;17112;48.636;10.152;2022-08-11T10:50:37;30.40;27.80
30304;DHT22;17112;48.636;10.152;2022-08-11T10:53:22;30.40;28.10
30304;DHT22;17112;48.636;10.152;2022-08-11T10:56:07;30.40;28.50
30304;DHT22;17112;48.636;10.152;2022-08-11T10:58:52;30.50;28.20
30304;DHT22;17112;48.636;10.152;2022-08-11T11:01:27;30.50;28.30
30304;DHT22;17112;48.636;10.152;2022-08-11T11:03:57;30.60;27.70
30304;DHT22;17112;48.636;10.152;2022-08-11T11:06:53;30.60;28.20
30304;DHT22;17112;48.636;10.152;2022-08-11T11:09:55;30.70;28.40
30304;DHT22;17112;48.636;10.152;2022-08-11T11:12:43;30.80;27.80
30304;DHT22;17112;48.636;10.152;2022-08-11T11:15:30;30.90;27.80
30304;DHT22;17112;48.636;10.152;2022-08-11T11:18:24;31.00;27.70
30304;DHT22;17112;48.636;10.152;2022-08-11T11:21:05;31.10;27.70
30304;DHT22;17112;48.636;10.152;2022-08-11T11:29:25;31.30;27.20
30304;DHT22;17112;48.636;10.152;2022-08-11T11:37:35;31.40;27.30
30304;DHT22;17112;48.636;10.152;2022-08-11T11:40:12;31.60;27.80
30304;DHT22;17112;48.636;10.152;2022-08-11T11:42:43;31.60;26.90
30304;DHT22;17112;48.636;10.152;2022-08-11T11:45:10;31.70;26.20
30304;DHT22;17112;48.636;10.152;2022-08-11T11:47:40;31.70;27.00
30304;DHT22;17112;48.636;10.152;2022-08-11T11:50:07;31.80;27.20
30304;DHT22;17112;48.636;10.152;2022-08-11T11:52:33;31.80;27.30
30304;DHT22;17112;48.636;10.152;2022-08-11T11:55:00;31.80;27.00
30304;DHT22;17112;48.636;10.152;2022-08-11T11:57:27;31.90;27.10
30304;DHT22;17112;48.636;10.152;2022-08-11T12:00:17;32.00;26.90
30304;DHT22;17112;48.636;10.152;2022-08-11T12:03:05;32.00;26.90
30304;DHT22;17112;48.636;10.152;2022-08-11T12:05:36;32.10;26.70
30304;DHT22;17112;48.636;10.152;2022-08-11T12:08:03;32.20;26.60
30304;DHT22;17112;48.636;10.152;2022-08-11T12:10:51;32.20;26.60
30304;DHT22;17112;48.636;10.152;2022-08-11T12:13:48;32.30;26.30
30304;DHT22;17112;48.636;10.152;2022-08-11T12:16:17;32.40;26.10
30304;DHT22;17112;48.636;10.152;2022-08-11T12:18:46;32.40;25.90
30304;DHT22;17112;48.636;10.152;2022-08-11T12:21:13;32.50;26.00
30304;DHT22;17112;48.636;10.152;2022-08-11T12:23:41;32.50;26.00
30304;DHT22;17112;48.636;10.152;2022-08-11T12:26:26;32.60;25.90
30304;DHT22;17112;48.636;10.152;2022-08-11T12:29:11;32.70;25.90
30304;DHT22;17112;48.636;10.152;2022-08-11T12:31:39;32.70;25.50
30304;DHT22;17112;48.636;10.152;2022-08-11T12:34:10;32.70;25.40
30304;DHT22;17112;48.636;10.152;2022-08-11T12:36:38;32.70;25.20
30304;DHT22;17112;48.636;10.152;2022-08-11T12:39:08;32.70;25.00
30304;DHT22;17112;48.636;10.152;2022-08-11T12:41:36;32.70;25.10
30304;DHT22;17112;48.636;10.152;2022-08-11T12:44:24;32.70;25.10
30304;DHT22;17112;48.636;10.152;2022-08-11T12:47:10;32.80;25.50
30304;DHT22;17112;48.636;10.152;2022-08-11T12:49:44;32.80;25.10
30304;DHT22;17112;48.636;10.152;2022-08-11T12:52:34;32.90;24.90
30304;DHT22;17112;48.636;10.152;2022-08-11T12:55:12;33.00;25.20
30304;DHT22;17112;48.636;10.152;2022-08-11T12:57:59;33.00;24.90
30304;DHT22;17112;48.636;10.152;2022-08-11T13:00:45;33.10;24.30
30304;DHT22;17112;48.636;10.152;2022-08-11T13:03:31;33.10;24.20
30304;DHT22;17112;48.636;10.152;2022-08-11T13:06:18;33.20;24.50
30304;DHT22;17112;48.636;10.152;2022-08-11T13:08:44;33.20;23.90
30304;DHT22;17112;48.636;10.152;2022-08-11T13:11:10;33.30;24.10
30304;DHT22;17112;48.636;10.152;2022-08-11T13:13:55;33.30;24.20
30304;DHT22;17112;48.636;10.152;2022-08-11T13:16:27;33.30;24.40
30304;DHT22;17112;48.636;10.152;2022-08-11T13:18:55;33.40;24.50
30304;DHT22;17112;48.636;10.152;2022-08-11T13:21:21;33.50;24.60
30304;DHT22;17112;48.636;10.152;2022-08-11T13:23:51;33.60;24.80
30304;DHT22;17112;48.636;10.152;2022-08-11T13:26:18;33.70;24.60
30304;DHT22;17112;48.636;10.152;2022-08-11T13:28:44;33.90;24.30
30304;DHT22;17112;48.636;10.152;2022-08-11T13:31:10;34.00;23.70
30304;DHT22;17112;48.636;10.152;2022-08-11T13:33:47;34.00;23.50
30304;DHT22;17112;48.636;10.152;2022-08-11T13:36:19;34.10;22.50
30304;DHT22;17112;48.636;10.152;2022-08-11T13:38:45;34.20;22.70
30304;DHT22;17112;48.636;10.152;2022-08-11T13:41:12;34.20;22.70
30304;DHT22;17112;48.636;10.152;2022-08-11T13:43:57;34.30;22.30
30304;DHT22;17112;48.636;10.152;2022-08-11T13:46:24;34.30;22.70
30304;DHT22;17112;48.636;10.152;2022-08-11T13:48:54;34.20;22.70
30304;DHT22;17112;48.636;10.152;2022-08-11T13:51:23;34.20;22.70
30304;DHT22;17112;48.636;10.152;2022-08-11T13:54:18;34.20;22.70
30304;DHT22;17112;48.636;10.152;2022-08-11T13:56:45;34.20;22.70
30304;DHT22;17112;48.636;10.152;2022-08-11T13:59:12;34.20;22.60
30304;DHT22;17112;48.636;10.152;2022-08-11T14:01:43;34.30;22.80
30304;DHT22;17112;48.636;10.152;2022-08-11T14:04:14;34.40;22.50
30304;DHT22;17112;48.636;10.152;2022-08-11T14:06:47;34.40;22.70
30304;DHT22;17112;48.636;10.152;2022-08-11T14:09:22;34.50;22.20
30304;DHT22;17112;48.636;10.152;2022-08-11T14:11:49;34.50;21.70
30304;DHT22;17112;48.636;10.152;2022-08-11T14:14:37;34.60;22.70
30304;DHT22;17112;48.636;10.152;2022-08-11T14:17:06;34.70;22.30
30304;DHT22;17112;48.636;10.152;2022-08-11T14:19:37;34.80;20.90
30304;DHT22;17112;48.636;10.152;2022-08-11T14:22:04;34.90;20.80
30304;DHT22;17112;48.636;10.152;2022-08-11T14:24:39;34.90;21.10
30304;DHT22;17112;48.636;10.152;2022-08-11T14:27:10;34.90;20.80
30304;DHT22;17112;48.636;10.152;2022-08-11T14:29:39;35.00;20.80
30304;DHT22;17112;48.636;10.152;2022-08-11T14:32:07;35.10;21.10
30304;DHT22;17112;48.636;10.152;2022-08-11T14:34:38;35.10;21.70
30304;DHT22;17112;48.636;10.152;2022-08-11T14:37:07;35.20;20.50
30304;DHT22;17112;48.636;10.152;2022-08-11T14:40:00;35.10;20.70
30304;DHT22;17112;48.636;10.152;2022-08-11T14:42:25;35.10;20.70
30304;DHT22;17112;48.636;10.152;2022-08-11T14:45:14;35.20;21.10
30304;DHT22;17112;48.636;10.152;2022-08-11T14:48:02;35.20;21.20
30304;DHT22;17112;48.636;10.152;2022-08-11T14:50:31;35.20;20.70
30304;DHT22;17112;48.636;10.152;2022-08-11T14:53:09;35.20;20.80
30304;DHT22;17112;48.636;10.152;2022-08-11T14:55:37;35.20;19.90
30304;DHT22;17112;48.636;10.152;2022-08-11T14:58:25;35.30;20.40
30304;DHT22;17112;48.636;10.152;2022-08-11T15:00:54;35.30;19.90
30304;DHT22;17112;48.636;10.152;2022-08-11T15:03:21;35.30;20.00
30304;DHT22;17112;48.636;10.152;2022-08-11T15:05:53;35.40;19.90
30304;DHT22;17112;48.636;10.152;2022-08-11T15:08:21;35.40;19.50
30304;DHT22;17112;48.636;10.152;2022-08-11T15:11:11;35.50;19.60
30304;DHT22;17112;48.636;10.152;2022-08-11T15:13:56;35.50;19.50
30304;DHT22;17112;48.636;10.152;2022-08-11T15:16:24;35.60;19.70
30304;DHT22;17112;48.636;10.152;2022-08-11T15:19:10;35.70;19.70
30304;DHT22;17112;48.636;10.152;2022-08-11T15:21:36;35.90;19.90
30304;DHT22;17112;48.636;10.152;2022-08-11T15:24:20;36.00;19.80
30304;DHT22;17112;48.636;10.152;2022-08-11T15:26:51;36.10;19.50
30304;DHT22;17112;48.636;10.152;2022-08-11T15:29:38;36.10;19.40
30304;DHT22;17112;48.636;10.152;2022-08-11T15:32:25;36.10;19.10
30304;DHT22;17112;48.636;10.152;2022-08-11T15:35:12;36.00;19.00
30304;DHT22;17112;48.636;10.152;2022-08-11T15:38:00;36.00;19.20
30304;DHT22;17112;48.636;10.152;2022-08-11T15:40:31;36.00;19.40
30304;DHT22;17112;48.636;10.152;2022-08-11T15:43:27;36.00;19.60
30304;DHT22;17112;48.636;10.152;2022-08-11T15:46:30;36.20;19.00
30304;DHT22;17112;48.636;10.152;2022-08-11T15:49:06;36.20;18.70
30304;DHT22;17112;48.636;10.152;2022-08-11T15:51:42;36.20;19.50
30304;DHT22;17112;48.636;10.152;2022-08-11T15:54:15;36.10;19.60
30304;DHT22;17112;48.636;10.152;2022-08-11T15:56:44;36.10;19.80
30304;DHT22;17112;48.636;10.152;2022-08-11T15:59:13;36.00;20.30
30304;DHT22;17112;48.636;10.152;2022-08-11T16:02:00;36.00;21.10
30304;DHT22;17112;48.636;10.152;2022-08-11T16:04:57;36.00;20.60
30304;DHT22;17112;48.636;10.152;2022-08-11T16:07:30;35.90;20.90
30304;DHT22;17112;48.636;10.152;2022-08-11T16:10:03;35.80;21.10
30304;DHT22;17112;48.636;10.152;2022-08-11T16:12:45;35.80;21.10
30304;DHT22;17112;48.636;10.152;2022-08-11T16:15:34;35.70;20.50
30304;DHT22;17112;48.636;10.152;2022-08-11T16:18:21;35.70;21.70
30304;DHT22;17112;48.636;10.152;2022-08-11T16:20:50;35.60;21.30
30304;DHT22;17112;48.636;10.152;2022-08-11T16:23:23;35.60;19.80
30304;DHT22;17112;48.636;10.152;2022-08-11T16:25:54;35.60;20.70
30304;DHT22;17112;48.636;10.152;2022-08-11T16:28:21;35.40;20.90
30304;DHT22;17112;48.636;10.152;2022-08-11T16:30:48;35.30;20.90
30304;DHT22;17112;48.636;10.152;2022-08-11T16:33:15;35.20;20.30
30304;DHT22;17112;48.636;10.152;2022-08-11T16:35:43;35.10;20.40
30304;DHT22;17112;48.636;10.152;2022-08-11T16:38:28;34.90;21.20
30304;DHT22;17112;48.636;10.152;2022-08-11T16:41:03;34.70;21.10
30304;DHT22;17112;48.636;10.152;2022-08-11T16:43:37;34.50;21.30
30304;DHT22;17112;48.636;10.152;2022-08-11T16:46:22;34.40;21.10
30304;DHT22;17112;48.636;10.152;2022-08-11T16:49:12;34.30;21.00
30304;DHT22;17112;48.636;10.152;2022-08-11T16:51:40;34.20;21.50
30304;DHT22;17112;48.636;10.152;2022-08-11T16:54:06;34.20;21.00
30304;DHT22;17112;48.636;10.152;2022-08-11T16:56:42;34.10;21.10
30304;DHT22;17112;48.636;10.152;2022-08-11T16:59:23;34.10;20.80
30304;DHT22;17112;48.636;10.152;2022-08-11T17:01:53;33.90;20.90
30304;DHT22;17112;48.636;10.152;2022-08-11T17:07:05;33.80;21.20
30304;DHT22;17112;48.636;10.152;2022-08-11T17:09:51;33.60;21.20
30304;DHT22;17112;48.636;10.152;2022-08-11T17:12:37;33.50;21.00
30304;DHT22;17112;48.636;10.152;2022-08-11T17:15:24;33.20;20.60
30304;DHT22;17112;48.636;10.152;2022-08-11T17:18:13;33.00;21.00
30304;DHT22;17112;48.636;10.152;2022-08-11T17:21:02;32.60;21.40
30304;DHT22;17112;48.636;10.152;2022-08-11T17:23:30;32.30;22.90
30304;DHT22;17112;48.636;10.152;2022-08-11T17:28:52;31.70;22.10
30304;DHT22;17112;48.636;10.152;2022-08-11T17:31:22;31.40;22.80
30304;DHT22;17112;48.636;10.152;2022-08-11T17:34:08;31.20;22.60
30304;DHT22;17112;48.636;10.152;2022-08-11T17:36:53;30.90;22.60
30304;DHT22;17112;48.636;10.152;2022-08-11T17:39:23;30.60;22.70
30304;DHT22;17112;48.636;10.152;2022-08-11T17:41:49;30.40;22.90
30304;DHT22;17112;48.636;10.152;2022-08-11T17:44:35;30.30;23.70
30304;DHT22;17112;48.636;10.152;2022-08-11T17:47:22;30.10;23.90
30304;DHT22;17112;48.636;10.152;2022-08-11T17:50:08;29.80;23.90
30304;DHT22;17112;48.636;10.152;2022-08-11T17:52:36;29.70;23.80
30304;DHT22;17112;48.636;10.152;2022-08-11T17:55:22;29.60;23.80
30304;DHT22;17112;48.636;10.152;2022-08-11T17:58:07;29.40;24.00
30304;DHT22;17112;48.636;10.152;2022-08-11T18:00:52;29.20;23.90
30304;DHT22;17112;48.636;10.152;2022-08-11T18:03:20;29.10;24.80
30304;DHT22;17112;48.636;10.152;2022-08-11T18:06:02;29.00;24.60
30304;DHT22;17112;48.636;10.152;2022-08-11T18:08:30;28.90;24.50
30304;DHT22;17112;48.636;10.152;2022-08-11T18:11:16;28.70;24.50
30304;DHT22;17112;48.636;10.152;2022-08-11T18:14:03;28.70;24.60
30304;DHT22;17112;48.636;10.152;2022-08-11T18:16:48;28.50;24.70
30304;DHT22;17112;48.636;10.152;2022-08-11T18:19:32;28.40;24.80
30304;DHT22;17112;48.636;10.152;2022-08-11T18:22:21;28.40;24.80
30304;DHT22;17112;48.636;10.152;2022-08-11T18:25:11;28.30;24.70
30304;DHT22;17112;48.636;10.152;2022-08-11T18:27:57;28.10;25.00
30304;DHT22;17112;48.636;10.152;2022-08-11T18:30:45;28.00;25.20
30304;DHT22;17112;48.636;10.152;2022-08-11T18:33:52;27.90;25.40
30304;DHT22;17112;48.636;10.152;2022-08-11T18:36:51;27.80;25.40
30304;DHT22;17112;48.636;10.152;2022-08-11T18:39:43;27.70;25.40
30304;DHT22;17112;48.636;10.152;2022-08-11T18:42:29;27.60;25.60
30304;DHT22;17112;48.636;10.152;2022-08-11T18:45:15;27.50;26.10
30304;DHT22;17112;48.636;10.152;2022-08-11T18:48:03;27.40;25.90
30304;DHT22;17112;48.636;10.152;2022-08-11T18:50:52;27.30;26.20
30304;DHT22;17112;48.636;10.152;2022-08-11T18:53:40;27.20;26.20
30304;DHT22;17112;48.636;10.152;2022-08-11T18:56:26;27.10;26.20
30304;DHT22;17112;48.636;10.152;2022-08-11T18:59:11;27.00;26.40
30304;DHT22;17112;48.636;10.152;2022-08-11T19:01:57;26.90;26.50
30304;DHT22;17112;48.636;10.152;2022-08-11T19:04:42;26.80;26.90
30304;DHT22;17112;48.636;10.152;2022-08-11T19:07:29;26.70;27.20
30304;DHT22;17112;48.636;10.152;2022-08-11T19:10:15;26.60;27.00
30304;DHT22;17112;48.636;10.152;2022-08-11T19:13:00;26.60;27.30
30304;DHT22;17112;48.636;10.152;2022-08-11T19:15:45;26.50;27.50
30304;DHT22;17112;48.636;10.152;2022-08-11T19:18:30;26.40;27.40
30304;DHT22;17112;48.636;10.152;2022-08-11T19:21:17;26.30;27.90
30304;DHT22;17112;48.636;10.152;2022-08-11T19:24:02;26.20;28.70
30304;DHT22;17112;48.636;10.152;2022-08-11T19:26:49;26.00;29.10
30304;DHT22;17112;48.636;10.152;2022-08-11T19:29:37;26.00;29.50
30304;DHT22;17112;48.636;10.152;2022-08-11T19:32:22;25.80;29.60
30304;DHT22;17112;48.636;10.152;2022-08-11T19:35:08;25.60;30.10
30304;DHT22;17112;48.636;10.152;2022-08-11T19:37:54;25.40;30.60
30304;DHT22;17112;48.636;10.152;2022-08-11T19:40:39;25.30;30.80
30304;DHT22;17112;48.636;10.152;2022-08-11T19:43:25;25.10;31.10